createdAt,value
2023-05-15T00:00:11.742Z,10.92
2023-05-15T00:01:11.732Z,10.86
2023-05-15T00:02:11.746Z,10.87
2023-05-15T00:03:11.855Z,10.87
2023-05-15T00:04:11.730Z,10.87
2023-05-15T00:05:11.774Z,10.89
2023-05-15T00:06:11.700Z,10.84
2023-05-15T00:07:11.700Z,10.86
2023-05-15T00:08:11.698Z,10.84
2023-05-15T00:09:11.686Z,10.89
2023-05-15T00:10:11.674Z,10.86
2023-05-15T00:11:11.660Z,10.79
2023-05-15T00:12:11.667Z,10.76
2023-05-15T00:13:11.657Z,10.81
2023-05-15T00:14:11.640Z,10.86
2023-05-15T00:15:11.643Z,10.87
2023-05-15T00:16:11.760Z,10.89
2023-05-15T00:17:11.616Z,10.81
2023-05-15T00:18:11.647Z,10.90
2023-05-15T00:19:11.668Z,10.90
2023-05-15T00:20:11.604Z,10.90
2023-05-15T00:21:11.598Z,10.87
2023-05-15T00:22:11.602Z,10.84
2023-05-15T00:23:11.578Z,10.78
2023-05-15T00:24:11.567Z,10.90
2023-05-15T00:25:11.559Z,10.79
2023-05-15T00:26:11.558Z,10.81
2023-05-15T00:27:11.550Z,10.79
2023-05-15T00:28:11.545Z,10.74
2023-05-15T00:29:11.541Z,10.61
2023-05-15T00:30:11.535Z,10.78
2023-05-15T00:31:11.549Z,10.69
2023-05-15T00:32:11.516Z,10.79
2023-05-15T00:33:11.512Z,10.78
2023-05-15T00:34:11.504Z,10.71
2023-05-15T00:35:11.497Z,10.78
2023-05-15T00:36:11.525Z,10.68
2023-05-15T00:37:11.481Z,10.69
2023-05-15T00:38:11.475Z,10.76
2023-05-15T00:39:11.474Z,10.69
2023-05-15T00:40:11.466Z,10.56
2023-05-15T00:41:11.463Z,10.60
2023-05-15T00:42:11.450Z,10.59
2023-05-15T00:43:11.441Z,10.61
2023-05-15T00:44:11.446Z,10.61
2023-05-15T00:45:11.428Z,10.56
2023-05-15T00:46:11.437Z,10.63
2023-05-15T00:47:11.506Z,10.61
2023-05-15T00:48:11.406Z,10.57
2023-05-15T00:49:11.399Z,10.59
2023-05-15T00:50:11.402Z,10.51
2023-05-15T00:51:11.380Z,10.54
2023-05-15T00:52:11.379Z,10.59
2023-05-15T00:53:11.368Z,10.59
2023-05-15T00:54:11.430Z,10.48
2023-05-15T00:55:11.363Z,10.41
2023-05-15T00:56:11.354Z,10.44
2023-05-15T00:57:11.345Z,10.40
2023-05-15T00:58:11.358Z,10.56
2023-05-15T00:59:11.328Z,10.42
2023-05-15T01:00:11.359Z,10.37
2023-05-15T01:01:11.377Z,10.35
2023-05-15T01:02:11.354Z,10.33
2023-05-15T01:03:11.468Z,10.34
2023-05-15T01:04:11.290Z,10.34
2023-05-15T01:05:11.285Z,10.37
2023-05-15T01:06:11.275Z,10.38
2023-05-15T01:07:11.274Z,10.48
2023-05-15T01:08:11.283Z,10.37
2023-05-15T01:09:11.270Z,10.34
2023-05-15T01:10:11.247Z,10.40
2023-05-15T01:11:11.242Z,10.31
2023-05-15T01:12:11.246Z,10.35
2023-05-15T01:13:11.226Z,10.28
2023-05-15T01:14:11.219Z,10.37
2023-05-15T01:15:11.233Z,10.30
2023-05-15T01:16:11.208Z,10.19
2023-05-15T01:17:11.273Z,10.22
2023-05-15T01:18:11.253Z,10.23
2023-05-15T01:19:11.328Z,10.12
2023-05-15T01:20:11.180Z,10.15
2023-05-15T01:21:11.163Z,10.07
2023-05-15T01:22:11.176Z,10.07
2023-05-15T01:24:53.856Z,10.07
2023-05-15T01:25:53.842Z,9.97
2023-05-15T01:27:57.820Z,9.98
2023-05-15T01:28:57.806Z,9.97
2023-05-15T01:31:01.782Z,9.95
2023-05-15T01:32:01.790Z,9.92
2023-05-15T01:34:05.735Z,9.92
2023-05-15T01:35:05.734Z,9.82
2023-05-15T01:37:09.701Z,9.82
2023-05-15T01:38:09.682Z,9.73
2023-05-15T01:40:02.611Z,9.73
2023-05-15T01:41:02.574Z,9.79
2023-05-15T01:43:06.554Z,9.72
2023-05-15T01:44:06.543Z,9.76
2023-05-15T01:46:10.531Z,9.72
2023-05-15T01:47:10.513Z,9.76
2023-05-15T01:49:15.086Z,9.72
2023-05-15T01:50:14.876Z,9.66
2023-05-15T01:52:18.711Z,9.66
2023-05-15T01:53:18.691Z,9.68
2023-05-15T01:55:22.807Z,9.64
2023-05-15T01:56:22.672Z,9.69
2023-05-15T01:58:26.630Z,9.65
2023-05-15T01:59:26.604Z,9.65
2023-05-15T02:01:30.644Z,9.69
2023-05-15T02:02:30.697Z,9.62
2023-05-15T02:04:34.570Z,9.59
2023-05-15T02:05:34.541Z,9.54
2023-05-15T02:07:38.518Z,9.56
2023-05-15T02:08:38.497Z,9.56
2023-05-15T02:10:42.472Z,9.50
2023-05-15T02:11:42.477Z,9.51
2023-05-15T02:13:46.444Z,9.54
2023-05-15T02:14:46.414Z,9.51
2023-05-15T02:16:50.410Z,9.46
2023-05-15T02:17:50.404Z,9.51
2023-05-15T02:19:43.277Z,9.46
2023-05-15T02:20:43.260Z,9.43
2023-05-15T02:22:47.234Z,9.46
2023-05-15T02:23:47.214Z,9.40
2023-05-15T02:25:51.187Z,9.39
2023-05-15T02:26:51.189Z,9.34
2023-05-15T02:28:55.205Z,9.39
2023-05-15T02:29:55.133Z,9.40
2023-05-15T02:31:59.161Z,9.44
2023-05-15T02:32:59.132Z,9.39
2023-05-15T02:35:03.058Z,9.43
2023-05-15T02:36:03.056Z,9.39
2023-05-15T02:38:07.023Z,9.29
2023-05-15T02:39:07.003Z,9.31
2023-05-15T02:41:10.989Z,9.23
2023-05-15T02:42:10.967Z,9.21
2023-05-15T02:44:14.939Z,9.28
2023-05-15T02:45:14.930Z,9.32
2023-05-15T02:47:18.908Z,9.28
2023-05-15T02:48:18.880Z,9.23
2023-05-15T02:50:11.792Z,9.29
2023-05-15T02:51:11.802Z,9.32
2023-05-15T02:53:15.746Z,9.50
2023-05-15T02:54:15.731Z,9.44
2023-05-15T02:56:19.706Z,9.34
2023-05-15T02:57:19.683Z,9.29
2023-05-15T02:59:23.651Z,9.25
2023-05-15T03:00:23.642Z,9.11
2023-05-15T03:02:27.641Z,9.03
2023-05-15T03:03:27.597Z,9.04
2023-05-15T03:05:31.577Z,8.99
2023-05-15T03:06:31.604Z,8.94
2023-05-15T03:08:35.536Z,9.08
2023-05-15T03:09:35.527Z,9.00
2023-05-15T03:11:39.494Z,9.31
2023-05-15T03:12:39.472Z,9.21
2023-05-15T03:14:43.458Z,9.19
2023-05-15T03:15:43.443Z,9.19
2023-05-15T03:17:47.426Z,9.08
2023-05-15T03:18:47.951Z,9.14
2023-05-15T03:20:51.370Z,9.06
2023-05-15T03:21:51.365Z,9.13
2023-05-15T03:23:55.325Z,9.11
2023-05-15T03:24:55.308Z,8.99
2023-05-15T03:26:59.282Z,9.06
2023-05-15T03:27:59.264Z,9.11
2023-05-15T03:29:52.200Z,9.02
2023-05-15T03:30:52.165Z,8.99
2023-05-15T03:32:56.183Z,9.02
2023-05-15T03:33:56.112Z,9.03
2023-05-15T03:36:00.113Z,9.25
2023-05-15T03:37:00.069Z,9.28
2023-05-15T03:39:04.039Z,9.29
2023-05-15T03:40:04.022Z,9.34
2023-05-15T03:42:08.012Z,9.31
2023-05-15T03:43:07.975Z,9.36
2023-05-15T03:45:11.943Z,9.39
2023-05-15T03:46:12.798Z,9.36
2023-05-15T03:48:15.906Z,9.44
2023-05-15T03:49:15.892Z,9.46
2023-05-15T03:51:19.863Z,9.39
2023-05-15T03:52:19.839Z,9.51
2023-05-15T03:54:23.812Z,9.59
2023-05-15T03:55:23.914Z,9.61
2023-05-15T03:57:27.782Z,9.68
2023-05-15T03:58:27.760Z,9.69
2023-05-15T04:00:20.664Z,9.83
2023-05-15T04:01:20.644Z,9.91
2023-05-15T04:03:24.924Z,10.13
2023-05-15T04:04:24.605Z,10.20
2023-05-15T04:06:28.581Z,10.33
2023-05-15T04:07:28.564Z,10.31
2023-05-15T04:09:32.535Z,10.59
2023-05-15T04:10:32.521Z,10.63
2023-05-15T04:12:36.502Z,10.84
2023-05-15T04:13:36.483Z,11.00
2023-05-15T04:15:40.470Z,11.33
2023-05-15T04:16:40.471Z,11.50
2023-05-15T04:18:44.449Z,11.91
2023-05-15T04:19:44.393Z,12.21
2023-05-15T04:21:48.372Z,12.72
2023-05-15T04:22:48.363Z,12.97
2023-05-15T04:24:52.338Z,13.59
2023-05-15T04:25:52.312Z,13.87
2023-05-15T04:27:56.306Z,14.60
2023-05-15T04:29:03.526Z,14.99
2023-05-15T04:31:00.269Z,15.61
2023-05-15T04:32:00.310Z,15.95
2023-05-15T04:34:04.217Z,16.31
2023-05-15T04:35:04.197Z,16.47
2023-05-15T04:37:08.169Z,16.49
2023-05-15T04:38:08.158Z,16.66
2023-05-15T04:40:01.072Z,17.15
2023-05-15T04:41:01.062Z,17.46
2023-05-15T04:43:05.048Z,17.97
2023-05-15T04:44:05.029Z,17.94
2023-05-15T04:46:09.037Z,18.00
2023-05-15T04:47:08.995Z,17.82
2023-05-15T04:49:12.987Z,18.05
2023-05-15T04:50:12.965Z,18.34
2023-05-15T04:52:16.945Z,19.16
2023-05-15T04:53:16.935Z,19.67
2023-05-15T04:55:20.941Z,20.21
2023-05-15T04:56:20.901Z,20.34
2023-05-15T04:58:24.900Z,20.78
2023-05-15T04:59:24.869Z,20.66
2023-05-15T05:01:28.908Z,19.96
2023-05-15T05:02:28.870Z,19.64
2023-05-15T05:04:32.814Z,18.08
2023-05-15T05:05:32.897Z,17.92
2023-05-15T05:07:36.798Z,17.01
2023-05-15T05:08:36.776Z,17.14
2023-05-15T05:10:40.771Z,17.27
2023-05-15T05:11:40.761Z,17.15
2023-05-15T05:13:44.750Z,17.51
2023-05-15T05:14:44.764Z,18.15
2023-05-15T05:16:48.728Z,19.16
2023-05-15T05:17:48.860Z,19.64
2023-05-15T05:19:41.643Z,20.70
2023-05-15T05:20:41.608Z,21.15
2023-05-15T05:22:45.590Z,22.10
2023-05-15T05:23:45.584Z,22.47
2023-05-15T05:25:49.579Z,22.99
2023-05-15T05:26:49.554Z,23.27
2023-05-15T05:28:53.539Z,23.69
2023-05-15T05:29:53.523Z,23.86
2023-05-15T05:31:57.582Z,24.03
2023-05-15T05:32:57.538Z,24.10
2023-05-15T05:35:01.492Z,24.54
2023-05-15T05:36:01.604Z,24.76
2023-05-15T05:38:05.465Z,24.84
2023-05-15T05:39:05.536Z,24.81
2023-05-15T05:41:09.440Z,25.16
2023-05-15T05:42:09.437Z,25.36
2023-05-15T05:44:13.433Z,25.83
2023-05-15T05:45:13.404Z,26.00
2023-05-15T05:47:17.451Z,26.10
2023-05-15T05:48:17.389Z,26.16
2023-05-15T05:50:10.295Z,25.96
2023-05-15T05:51:10.292Z,25.75
2023-05-15T05:53:14.274Z,25.80
2023-05-15T05:54:14.257Z,25.85
2023-05-15T05:56:18.263Z,26.10
2023-05-15T05:57:18.235Z,26.31
2023-05-15T05:59:22.226Z,26.33
2023-05-15T06:00:22.214Z,26.38
2023-05-15T06:02:26.453Z,25.63
2023-05-15T06:03:26.395Z,24.88
2023-05-15T06:05:30.416Z,23.80
2023-05-15T06:06:30.298Z,23.23
2023-05-15T06:08:34.294Z,22.25
2023-05-15T06:09:34.290Z,21.88
2023-05-15T06:11:38.271Z,21.21
2023-05-15T06:12:38.260Z,20.80
2023-05-15T06:14:42.256Z,20.37
2023-05-15T06:15:42.247Z,20.24
2023-05-15T06:17:46.270Z,20.10
2023-05-15T06:18:46.254Z,20.13
2023-05-15T06:20:50.211Z,20.13
2023-05-15T06:21:50.203Z,20.22
2023-05-15T06:23:54.173Z,20.32
2023-05-15T06:24:54.172Z,20.26
2023-05-15T06:26:58.216Z,20.37
2023-05-15T06:27:58.211Z,20.19
2023-05-15T06:29:51.120Z,19.69
2023-05-15T06:30:51.159Z,19.36
2023-05-15T06:32:55.100Z,19.14
2023-05-15T06:33:55.084Z,19.00
2023-05-15T06:35:59.083Z,19.33
2023-05-15T06:36:59.066Z,19.27
2023-05-15T06:39:03.054Z,19.08
2023-05-15T06:40:03.047Z,19.00
2023-05-15T06:42:07.025Z,18.93
2023-05-15T06:43:07.019Z,18.96
2023-05-15T06:45:10.996Z,19.29
2023-05-15T06:46:11.081Z,19.36
2023-05-15T06:48:15.021Z,19.70
2023-05-15T06:49:14.959Z,19.63
2023-05-15T06:51:18.953Z,19.62
2023-05-15T06:52:18.943Z,19.66
2023-05-15T06:54:22.940Z,19.70
2023-05-15T06:55:22.985Z,19.77
2023-05-15T06:57:26.907Z,19.84
2023-05-15T06:58:26.902Z,19.99
2023-05-15T07:00:19.801Z,20.00
2023-05-15T07:01:19.850Z,20.10
2023-05-15T07:03:23.814Z,20.16
2023-05-15T07:04:23.827Z,20.19
2023-05-15T07:06:27.760Z,20.21
2023-05-15T07:07:27.762Z,20.22
2023-05-15T07:09:31.727Z,20.69
2023-05-15T07:10:31.735Z,21.00
2023-05-15T07:12:35.713Z,21.30
2023-05-15T07:13:35.695Z,20.97
2023-05-15T07:15:39.684Z,20.22
2023-05-15T07:16:39.673Z,20.22
2023-05-15T07:18:43.710Z,20.58
2023-05-15T07:19:43.648Z,20.67
2023-05-15T07:21:47.639Z,20.63
2023-05-15T07:22:55.537Z,20.69
2023-05-15T07:24:51.612Z,21.00
2023-05-15T07:25:51.600Z,21.69
2023-05-15T07:27:55.591Z,22.75
2023-05-15T07:28:55.580Z,23.27
2023-05-15T07:31:01.049Z,23.08
2023-05-15T07:31:59.703Z,22.90
2023-05-15T07:34:03.581Z,22.10
2023-05-15T07:35:03.571Z,21.69
2023-05-15T07:37:07.554Z,21.52
2023-05-15T07:38:07.864Z,21.45
2023-05-15T07:40:00.493Z,21.46
2023-05-15T07:41:00.458Z,21.42
2023-05-15T07:43:04.431Z,21.50
2023-05-15T07:44:04.443Z,21.52
2023-05-15T07:46:08.501Z,21.39
2023-05-15T07:47:08.425Z,21.48
2023-05-15T07:49:12.481Z,21.11
2023-05-15T07:50:12.436Z,20.52
2023-05-15T07:52:16.395Z,19.95
2023-05-15T07:53:16.392Z,19.85
2023-05-15T07:55:20.374Z,19.85
2023-05-15T07:56:20.362Z,19.89
2023-05-15T07:58:24.355Z,20.04
2023-05-15T07:59:24.398Z,20.16
2023-05-15T08:01:29.546Z,20.22
2023-05-15T08:02:28.382Z,20.18
2023-05-15T08:04:32.335Z,19.88
2023-05-15T08:05:32.304Z,19.82
2023-05-15T08:07:36.406Z,19.85
2023-05-15T08:08:36.349Z,19.82
2023-05-15T08:10:40.264Z,20.02
2023-05-15T08:11:40.261Z,20.11
2023-05-15T08:13:44.399Z,20.16
2023-05-15T08:14:44.389Z,20.13
2023-05-15T08:16:48.358Z,20.13
2023-05-15T08:17:48.381Z,20.13
2023-05-15T08:19:41.254Z,20.19
2023-05-15T08:20:41.250Z,20.21
2023-05-15T08:22:45.234Z,20.10
2023-05-15T08:23:45.314Z,19.69
2023-05-15T08:25:49.209Z,19.44
2023-05-15T08:26:49.200Z,19.56
2023-05-15T08:28:53.180Z,19.63
2023-05-15T08:29:53.189Z,19.71
2023-05-15T08:31:57.166Z,19.33
2023-05-15T08:32:57.198Z,19.15
2023-05-15T08:35:01.145Z,19.08
2023-05-15T08:36:01.165Z,18.78
2023-05-15T08:38:05.114Z,18.70
2023-05-15T08:39:05.103Z,18.73
2023-05-15T08:41:09.090Z,18.89
2023-05-15T08:42:09.076Z,18.99
2023-05-15T08:44:13.071Z,19.09
2023-05-15T08:45:13.050Z,19.07
2023-05-15T08:47:17.041Z,19.02
2023-05-15T08:48:17.192Z,18.96
2023-05-15T08:50:09.948Z,19.08
2023-05-15T08:51:09.933Z,19.19
2023-05-15T08:53:13.934Z,19.36
2023-05-15T08:54:13.918Z,19.40
2023-05-15T08:56:17.910Z,19.49
2023-05-15T08:57:17.893Z,19.55
2023-05-15T08:59:21.879Z,19.71
2023-05-15T09:00:21.878Z,19.84
2023-05-15T09:02:25.878Z,20.00
2023-05-15T09:03:25.990Z,20.02
2023-05-15T09:05:29.869Z,20.10
2023-05-15T09:06:29.838Z,20.00
2023-05-15T09:08:33.832Z,19.74
2023-05-15T09:09:33.812Z,19.62
2023-05-15T09:11:37.796Z,19.67
2023-05-15T09:12:37.787Z,19.73
2023-05-15T09:14:41.778Z,19.82
2023-05-15T09:15:41.770Z,19.86
2023-05-15T09:17:45.781Z,19.79
2023-05-15T09:18:45.757Z,19.77
2023-05-15T09:20:49.713Z,19.84
2023-05-15T09:21:49.712Z,19.86
2023-05-15T09:23:53.698Z,19.81
2023-05-15T09:24:53.725Z,19.81
2023-05-15T09:26:57.673Z,19.89
2023-05-15T09:27:57.663Z,20.02
2023-05-15T09:29:50.573Z,20.22
2023-05-15T09:30:50.567Z,20.29
2023-05-15T09:32:54.569Z,20.62
2023-05-15T09:33:54.537Z,20.67
2023-05-15T09:35:58.528Z,20.66
2023-05-15T09:36:58.523Z,20.72
2023-05-15T09:37:58.521Z,20.77
2023-05-15T09:38:58.590Z,20.67
2023-05-15T09:39:58.524Z,20.75
2023-05-15T09:40:58.510Z,20.72
2023-05-15T09:41:58.512Z,20.70
2023-05-15T09:42:58.514Z,20.78
2023-05-15T09:43:58.501Z,20.70
2023-05-15T09:44:58.503Z,20.48
2023-05-15T09:45:58.639Z,20.29
2023-05-15T09:46:58.586Z,20.26
2023-05-15T09:47:58.613Z,20.28
2023-05-15T09:48:58.578Z,20.19
2023-05-15T09:49:58.491Z,20.09
2023-05-15T09:50:58.489Z,20.06
2023-05-15T09:51:58.486Z,20.02
2023-05-15T09:52:58.486Z,19.94
2023-05-15T09:53:58.481Z,19.88
2023-05-15T09:54:58.484Z,19.77
2023-05-15T09:55:58.514Z,19.71
2023-05-15T09:56:58.480Z,19.84
2023-05-15T09:57:58.476Z,19.82
2023-05-15T09:58:58.539Z,19.89
2023-05-15T09:59:58.478Z,19.84
2023-05-15T10:00:58.466Z,19.91
2023-05-15T10:01:58.555Z,19.84
2023-05-15T10:02:58.510Z,20.00
2023-05-15T10:03:58.459Z,19.99
2023-05-15T10:04:58.546Z,20.06
2023-05-15T10:05:58.475Z,19.94
2023-05-15T10:06:58.487Z,19.92
2023-05-15T10:07:58.469Z,19.70
2023-05-15T10:08:58.454Z,19.81
2023-05-15T10:09:58.446Z,19.73
2023-05-15T10:10:58.452Z,19.67
2023-05-15T10:11:58.441Z,19.73
2023-05-15T10:12:58.438Z,19.71
2023-05-15T10:13:58.441Z,19.85
2023-05-15T10:14:58.439Z,19.66
2023-05-15T10:15:58.456Z,19.62
2023-05-15T10:16:58.433Z,19.56
2023-05-15T10:17:58.466Z,19.49
2023-05-15T10:18:58.469Z,19.63
2023-05-15T10:19:59.091Z,19.62
2023-05-15T10:20:58.430Z,19.70
2023-05-15T10:21:58.419Z,19.64
2023-05-15T10:22:58.417Z,19.74
2023-05-15T10:23:58.414Z,19.70
2023-05-15T10:24:58.434Z,19.74
2023-05-15T10:25:58.409Z,19.41
2023-05-15T10:26:58.405Z,19.31
2023-05-15T10:27:58.404Z,19.14
2023-05-15T10:28:58.403Z,18.99
2023-05-15T10:29:58.404Z,18.92
2023-05-15T10:30:58.441Z,18.90
2023-05-15T10:31:58.439Z,18.86
2023-05-15T10:32:58.420Z,18.90
2023-05-15T10:33:58.388Z,18.99
2023-05-15T10:34:58.396Z,18.98
2023-05-15T10:35:58.388Z,19.09
2023-05-15T10:36:58.395Z,18.98
2023-05-15T10:37:58.384Z,18.96
2023-05-15T10:38:58.375Z,18.73
2023-05-15T10:39:58.377Z,18.53
2023-05-15T10:41:13.172Z,18.45
2023-05-15T10:41:58.371Z,18.37
2023-05-15T10:42:58.365Z,18.29
2023-05-15T10:43:58.361Z,18.19
2023-05-15T10:44:58.360Z,18.26
2023-05-15T10:45:58.364Z,18.31
2023-05-15T10:46:58.416Z,18.33
2023-05-15T10:47:58.383Z,18.44
2023-05-15T10:48:58.365Z,18.38
2023-05-15T10:49:58.352Z,18.31
2023-05-15T10:50:58.343Z,18.22
2023-05-15T10:51:58.337Z,18.29
2023-05-15T10:52:58.341Z,18.26
2023-05-15T10:53:58.337Z,18.33
2023-05-15T10:54:58.348Z,18.50
2023-05-15T10:55:58.385Z,18.52
2023-05-15T10:56:58.328Z,18.58
2023-05-15T10:57:58.325Z,18.47
2023-05-15T10:58:58.323Z,18.60
2023-05-15T10:59:58.326Z,18.75
2023-05-15T11:00:58.329Z,18.74
2023-05-15T11:01:58.311Z,18.77
2023-05-15T11:02:58.391Z,19.07
2023-05-15T11:03:58.317Z,19.24
2023-05-15T11:04:58.308Z,19.56
2023-05-15T11:05:58.304Z,19.44
2023-05-15T11:06:58.305Z,19.31
2023-05-15T11:07:58.296Z,19.31
2023-05-15T11:08:58.296Z,19.47
2023-05-15T11:09:58.293Z,19.45
2023-05-15T11:10:58.291Z,19.37
2023-05-15T11:11:58.316Z,19.26
2023-05-15T11:12:58.287Z,19.44
2023-05-15T11:13:58.282Z,19.55
2023-05-15T11:14:58.282Z,19.86
2023-05-15T11:15:58.281Z,19.82
2023-05-15T11:16:58.364Z,19.99
2023-05-15T11:17:58.306Z,20.14
2023-05-15T11:18:58.312Z,20.21
2023-05-15T11:19:58.276Z,20.21
2023-05-15T11:20:58.268Z,20.16
2023-05-15T11:21:58.275Z,20.24
2023-05-15T11:22:58.268Z,20.18
2023-05-15T11:23:58.261Z,20.28
2023-05-15T11:24:58.265Z,20.39
2023-05-15T11:25:58.281Z,20.37
2023-05-15T11:26:59.247Z,20.72
2023-05-15T11:27:58.265Z,20.72
2023-05-15T11:28:58.254Z,20.96
2023-05-15T11:29:58.250Z,21.03
2023-05-15T11:30:58.299Z,21.36
2023-05-15T11:31:58.248Z,21.43
2023-05-15T11:32:58.378Z,21.43
2023-05-15T11:33:58.245Z,21.50
2023-05-15T11:34:58.247Z,21.64
2023-05-15T11:35:58.260Z,21.27
2023-05-15T11:36:58.246Z,21.27
2023-05-15T11:37:58.242Z,21.30
2023-05-15T11:38:58.238Z,21.20
2023-05-15T11:39:58.241Z,21.21
2023-05-15T11:40:58.242Z,21.20
2023-05-15T11:41:59.288Z,21.03
2023-05-15T11:42:58.234Z,20.97
2023-05-15T11:43:58.234Z,20.77
2023-05-15T11:44:58.234Z,20.72
2023-05-15T11:45:58.342Z,20.80
2023-05-15T11:46:58.250Z,20.78
2023-05-15T11:47:58.304Z,20.84
2023-05-15T11:49:00.067Z,20.90
2023-05-15T11:49:58.224Z,20.87
2023-05-15T11:50:58.223Z,20.75
2023-05-15T11:51:58.218Z,20.77
2023-05-15T11:52:58.218Z,20.90
2023-05-15T11:53:58.218Z,20.96
2023-05-15T11:54:58.221Z,21.07
2023-05-15T11:55:58.218Z,21.05
2023-05-15T11:56:58.218Z,21.18
2023-05-15T11:57:58.222Z,20.99
2023-05-15T11:58:58.222Z,20.84
2023-05-15T11:59:58.216Z,20.87
2023-05-15T12:00:58.209Z,20.81
2023-05-15T12:01:58.209Z,20.81
2023-05-15T12:02:58.300Z,20.92
2023-05-15T12:03:58.645Z,21.05
2023-05-15T12:04:58.238Z,21.20
2023-05-15T12:06:00.186Z,21.30
2023-05-15T12:06:58.304Z,21.33
2023-05-15T12:07:58.196Z,21.30
2023-05-15T12:08:58.202Z,21.27
2023-05-15T12:09:58.197Z,21.33
2023-05-15T12:10:58.199Z,21.30
2023-05-15T12:11:58.193Z,21.29
2023-05-15T12:12:58.190Z,21.36
2023-05-15T12:13:58.191Z,21.45
2023-05-15T12:14:58.189Z,21.45
2023-05-15T12:15:58.258Z,21.45
2023-05-15T12:16:58.345Z,21.36
2023-05-15T12:17:58.218Z,21.22
2023-05-15T12:18:58.232Z,21.11
2023-05-15T12:19:58.184Z,21.14
2023-05-15T12:20:58.187Z,21.20
2023-05-15T12:21:58.192Z,21.30
2023-05-15T12:22:58.177Z,21.35
2023-05-15T12:24:58.174Z,21.52
2023-05-15T12:25:58.171Z,21.45
2023-05-15T12:26:58.166Z,21.57
2023-05-15T12:27:58.168Z,21.58
2023-05-15T12:28:58.167Z,21.66
2023-05-15T12:29:58.167Z,21.67
2023-05-15T12:30:58.173Z,21.67
2023-05-15T12:31:58.199Z,21.83
2023-05-15T12:32:58.217Z,21.98
2023-05-15T12:33:58.158Z,22.00
2023-05-15T12:34:58.155Z,21.96
2023-05-15T12:36:01.072Z,21.96
2023-05-15T12:36:58.151Z,21.92
2023-05-15T12:37:58.150Z,21.95
2023-05-15T12:38:58.152Z,21.76
2023-05-15T12:39:58.148Z,21.64
2023-05-15T12:40:58.146Z,21.55
2023-05-15T12:41:58.150Z,21.39
2023-05-15T12:42:58.146Z,21.35
2023-05-15T12:43:58.142Z,21.25
2023-05-15T12:44:58.139Z,21.39
2023-05-15T12:45:58.206Z,21.42
2023-05-15T12:46:58.140Z,21.54
2023-05-15T12:47:58.235Z,21.58
2023-05-15T12:48:58.141Z,21.75
2023-05-15T12:49:58.129Z,21.67
2023-05-15T12:50:58.129Z,21.93
2023-05-15T12:51:58.146Z,21.95
2023-05-15T12:52:58.140Z,21.93
2023-05-15T12:53:58.146Z,21.92
2023-05-15T12:54:58.131Z,22.14
2023-05-15T12:55:58.120Z,22.28
2023-05-15T12:56:59.248Z,22.30
2023-05-15T12:57:58.122Z,22.14
2023-05-15T12:58:58.118Z,22.22
2023-05-15T12:59:58.112Z,22.38
2023-05-15T13:00:58.137Z,22.59
2023-05-15T13:01:58.153Z,22.59
2023-05-15T13:02:58.188Z,22.70
2023-05-15T13:03:58.141Z,22.83
2023-05-15T13:04:58.097Z,22.94
2023-05-15T13:05:58.101Z,23.02
2023-05-15T13:06:58.101Z,23.21
2023-05-15T13:07:58.094Z,23.40
2023-05-15T13:08:58.094Z,23.58
2023-05-15T13:09:58.090Z,23.51
2023-05-15T13:10:58.120Z,23.66
2023-05-15T13:11:58.092Z,23.76
2023-05-15T13:12:58.098Z,23.81
2023-05-15T13:13:58.126Z,23.73
2023-05-15T13:14:58.086Z,23.63
2023-05-15T13:15:58.117Z,23.36
2023-05-15T13:16:58.085Z,23.36
2023-05-15T13:17:58.113Z,23.36
2023-05-15T13:18:58.100Z,23.46
2023-05-15T13:19:58.079Z,23.68
2023-05-15T13:20:58.091Z,23.77
2023-05-15T13:21:58.077Z,23.80
2023-05-15T13:22:58.074Z,23.96
2023-05-15T13:23:58.178Z,24.03
2023-05-15T13:24:58.117Z,24.10
2023-05-15T13:25:58.076Z,23.96
2023-05-15T13:26:58.076Z,23.88
2023-05-15T13:27:58.086Z,23.76
2023-05-15T13:28:58.076Z,23.55
2023-05-15T13:29:58.075Z,23.46
2023-05-15T13:30:58.124Z,23.15
2023-05-15T13:31:58.107Z,23.08
2023-05-15T13:32:58.116Z,22.66
2023-05-15T13:33:58.073Z,21.30
2023-05-15T13:34:58.071Z,19.86
2023-05-15T13:35:58.072Z,19.08
2023-05-15T13:36:58.083Z,18.99
2023-05-15T13:37:58.072Z,18.63
2023-05-15T13:38:58.070Z,18.10
2023-05-15T13:39:58.072Z,17.60
2023-05-15T13:40:58.083Z,17.45
2023-05-15T13:41:58.071Z,17.20
2023-05-15T13:42:58.066Z,17.09
2023-05-15T13:43:58.067Z,17.15
2023-05-15T13:44:58.062Z,17.20
2023-05-15T13:45:58.075Z,16.93
2023-05-15T13:46:58.073Z,16.58
2023-05-15T13:47:58.069Z,16.57
2023-05-15T13:48:58.053Z,16.83
2023-05-15T13:49:58.055Z,16.79
2023-05-15T13:50:58.064Z,16.74
2023-05-15T13:51:58.045Z,16.60
2023-05-15T13:52:58.045Z,16.50
2023-05-15T13:53:58.037Z,16.46
2023-05-15T13:54:58.033Z,16.53
2023-05-15T13:55:58.049Z,16.66
2023-05-15T13:56:58.029Z,16.50
2023-05-15T13:57:58.033Z,16.49
2023-05-15T13:58:58.020Z,16.41
2023-05-15T13:59:58.019Z,16.35
2023-05-15T14:00:58.046Z,16.46
2023-05-15T14:01:58.008Z,16.46
2023-05-15T14:02:58.004Z,16.53
2023-05-15T14:03:58.088Z,16.57
2023-05-15T14:04:57.997Z,16.58
2023-05-15T14:05:57.992Z,16.56
2023-05-15T14:06:57.989Z,16.50
2023-05-15T14:07:57.987Z,16.43
2023-05-15T14:08:58.000Z,16.38
2023-05-15T14:09:57.973Z,16.29
2023-05-15T14:10:57.971Z,16.20
2023-05-15T14:11:57.990Z,16.12
2023-05-15T14:12:59.396Z,16.33
2023-05-15T14:13:57.959Z,16.35
2023-05-15T14:14:57.953Z,16.31
2023-05-15T14:15:57.947Z,16.42
2023-05-15T14:16:58.047Z,16.51
2023-05-15T14:17:57.977Z,16.69
2023-05-15T14:18:57.972Z,16.66
2023-05-15T14:19:57.938Z,16.51
2023-05-15T14:20:57.924Z,16.41
2023-05-15T14:21:57.923Z,16.56
2023-05-15T14:22:57.920Z,16.72
2023-05-15T14:23:57.917Z,16.89
2023-05-15T14:24:57.906Z,16.78
2023-05-15T14:25:57.900Z,16.72
2023-05-15T14:26:57.901Z,16.74
2023-05-15T14:27:57.905Z,16.79
2023-05-15T14:28:57.900Z,16.81
2023-05-15T14:29:57.880Z,17.02
2023-05-15T14:30:57.888Z,17.02
2023-05-15T14:31:57.915Z,17.19
2023-05-15T14:32:57.964Z,17.16
2023-05-15T14:33:57.867Z,17.31
2023-05-15T14:34:57.869Z,17.30
2023-05-15T14:35:57.873Z,17.39
2023-05-15T14:36:57.864Z,17.42
2023-05-15T14:37:57.858Z,17.63
2023-05-15T14:39:00.219Z,17.78
2023-05-15T14:39:57.858Z,17.64
2023-05-15T14:40:57.848Z,17.49
2023-05-15T14:41:57.834Z,17.20
2023-05-15T14:42:57.831Z,17.11
2023-05-15T14:43:57.826Z,16.99
2023-05-15T14:44:57.829Z,16.72
2023-05-15T14:45:57.869Z,16.61
2023-05-15T14:46:57.892Z,16.56
2023-05-15T14:47:57.886Z,16.69
2023-05-15T14:48:57.816Z,16.66
2023-05-15T14:49:57.801Z,16.61
2023-05-15T14:50:57.792Z,16.56
2023-05-15T14:51:57.789Z,16.66
2023-05-15T14:52:57.790Z,16.57
2023-05-15T14:53:57.789Z,16.60
2023-05-15T14:55:08.722Z,16.47
2023-05-15T14:55:57.773Z,16.71
2023-05-15T14:56:57.954Z,16.78
2023-05-15T14:57:57.767Z,16.65
2023-05-15T14:58:57.802Z,16.79
2023-05-15T14:59:57.756Z,16.96
2023-05-15T15:00:57.754Z,17.02
2023-05-15T15:01:57.802Z,17.02
2023-05-15T15:02:57.828Z,17.05
2023-05-15T15:03:57.862Z,17.23
2023-05-15T15:04:57.741Z,16.97
2023-05-15T15:05:57.736Z,17.01
2023-05-15T15:06:57.726Z,16.94
2023-05-15T15:07:57.722Z,16.97
2023-05-15T15:08:57.720Z,17.16
2023-05-15T15:09:57.713Z,17.33
2023-05-15T15:10:57.709Z,17.42
2023-05-15T15:11:57.707Z,17.65
2023-05-15T15:12:57.702Z,17.92
2023-05-15T15:13:57.704Z,18.01
2023-05-15T15:14:57.693Z,18.13
2023-05-15T15:15:57.925Z,17.85
2023-05-15T15:16:57.687Z,17.46
2023-05-15T15:17:57.754Z,17.24
2023-05-15T15:18:57.697Z,17.11
2023-05-15T15:19:57.698Z,17.14
2023-05-15T15:20:57.680Z,17.08
2023-05-15T15:21:57.676Z,17.23
2023-05-15T15:22:57.665Z,17.34
2023-05-15T15:23:57.664Z,17.51
2023-05-15T15:24:59.786Z,17.57
2023-05-15T15:25:57.652Z,17.64
2023-05-15T15:26:57.645Z,17.71
2023-05-15T15:27:57.645Z,17.70
2023-05-15T15:28:57.645Z,17.85
2023-05-15T15:29:57.635Z,17.74
2023-05-15T15:30:57.632Z,17.65
2023-05-15T15:31:57.668Z,17.71
2023-05-15T15:32:57.667Z,17.60
2023-05-15T15:33:57.681Z,17.64
2023-05-15T15:34:57.623Z,17.64
2023-05-15T15:35:57.614Z,17.63
2023-05-15T15:36:57.645Z,17.63
2023-05-15T15:37:57.656Z,17.52
2023-05-15T15:38:57.606Z,17.51
2023-05-15T15:39:57.597Z,17.46
2023-05-15T15:40:57.595Z,17.48
2023-05-15T15:41:57.591Z,17.60
2023-05-15T15:42:57.585Z,17.57
2023-05-15T15:43:57.616Z,17.86
2023-05-15T15:44:57.583Z,17.92
2023-05-15T15:45:57.616Z,17.89
2023-05-15T15:46:57.583Z,18.04
2023-05-15T15:47:57.619Z,18.00